Weather reports worldwide

Advertisment
Stekenjokk, Sweden (2102): temperature & dewpoint: 06.12.2019 16:00:00 - 12.12.2019 16:00:00 (CET)Stekenjokk, Sweden (2102): wind speed & gusts: 06.12.2019 16:00:00 - 12.12.2019 16:00:00 (CET)Stekenjokk, Sweden (2102): wind direction: 06.12.2019 16:00:00 - 12.12.2019 16:00:00 (CET)
Date & Time tt [°C] td [°C] ff [km/h] ff [kn] fx [km/h] fx [kn] dd
12.12.2019 16:00:00 -5,1 -5,6 70 38 81 44 SSE
12.12.2019 15:00:00 -5,1 -5,6 70 38 80 43 SSE
12.12.2019 14:00:00 -5,4 -5,9 64 35 74 40 SSE
12.12.2019 13:00:00 -5,6 -6,3 62 34 70 38 SSE
12.12.2019 12:00:00 -5,4 -5,9 44 24 55 30 SSE
12.12.2019 11:00:00 -6,0 -6,7 31 17 51 27 SE
12.12.2019 10:00:00 -5,7 -6,4 43 23 58 32 SSE
12.12.2019 09:00:00 -6,0 -6,7 42 23 61 33 SSE
12.12.2019 08:00:00 -6,2 -6,9 49 26 71 38 S
12.12.2019 07:00:00 -5,8 -6,5 56 30 71 39 S
12.12.2019 06:00:00 -6,0 -6,7 61 33 74 40 S
12.12.2019 05:00:00 -6,1 -6,8 58 32 69 38 S
12.12.2019 04:00:00 -6,0 -6,7 59 32 74 40 S
12.12.2019 03:00:00 -6,1 -6,8 62 33 74 40 S
12.12.2019 02:00:00 -6,0 -6,7 60 33 74 40 S
12.12.2019 01:00:00 -6,1 -6,8 60 33 70 38 S
12.12.2019 00:00:00 -6,1 -6,8 49 27 65 35 S
11.12.2019 23:00:00 -6,2 -6,9 59 32 74 40 S
11.12.2019 22:00:00 -6,2 -6,9 56 30 61 33 S
11.12.2019 21:00:00 -6,2 -6,9 50 27 61 33 S
11.12.2019 20:00:00 -6,2 -6,9 55 30 70 38 S
11.12.2019 19:00:00 -5,9 -6,6 - - - - -
11.12.2019 18:00:00 -5,2 -5,7 - - 59 32 -
11.12.2019 17:00:00 -4,0 -4,4 - - 59 32 -
11.12.2019 16:00:00 -3,7 -4,1 - - - - -
11.12.2019 15:00:00 -3,7 -4,1 - - 71 38 -
11.12.2019 14:00:00 -3,7 -4,1 - - 71 38 -
11.12.2019 13:00:00 -4,2 -4,6 - - 77 42 -
11.12.2019 12:00:00 -4,4 -4,8 - - 77 42 -
11.12.2019 11:00:00 -4,8 -5,3 60 32 72 39 S
11.12.2019 10:00:00 -4,9 -5,4 51 28 64 35 S
11.12.2019 09:00:00 -5,1 -5,6 41 22 49 26 S
11.12.2019 08:00:00 -5,3 -5,8 - - - - -
11.12.2019 07:00:00 -5,5 -6,2 - - - - -
11.12.2019 06:00:00 -6,0 -6,7 - - - - -
11.12.2019 05:00:00 -6,8 -7,6 - - - - -
11.12.2019 04:00:00 -7,0 -7,8 - - - - -
11.12.2019 03:00:00 -7,4 -8,2 - - - - -
11.12.2019 02:00:00 -7,9 -8,8 - - - - -
11.12.2019 01:00:00 -8,9 -9,8 - - - - -
11.12.2019 00:00:00 -9,2 -10,3 - - - - -
10.12.2019 23:00:00 -10,1 -11,1 - - - - -
10.12.2019 22:00:00 -10,7 -11,9 - - - - -
10.12.2019 21:00:00 -11,3 -12,6 - - - - -
10.12.2019 20:00:00 -10,7 -11,9 - - - - -
10.12.2019 19:00:00 -9,9 -11,0 - - - - -
10.12.2019 18:00:00 -10,0 -11,1 - - 47 26 -
10.12.2019 17:00:00 -10,8 -12,0 - - 47 26 -
10.12.2019 16:00:00 -10,7 -11,9 40 22 50 27 SSE
10.12.2019 15:00:00 -10,5 -11,7 21 11 27 15 S
10.12.2019 14:00:00 -9,5 -10,6 - - 25 13 -
10.12.2019 13:00:00 -9,7 -10,8 - - 36 19 -
10.12.2019 12:00:00 -10,3 -11,5 - - 36 19 -
10.12.2019 11:00:00 -10,8 -12,0 26 14 33 18 SSW
10.12.2019 10:00:00 -11,3 -12,6 18 10 24 13 SW
10.12.2019 09:00:00 -11,2 -12,4 27 14 32 17 W
10.12.2019 08:00:00 -11,0 -12,2 21 11 37 20 WSW
10.12.2019 07:00:00 -10,3 -11,5 32 17 41 22 W
10.12.2019 06:00:00 -9,9 -11,0 40 22 50 27 WNW
10.12.2019 05:00:00 -10,0 -11,1 42 23 50 27 WNW
10.12.2019 04:00:00 -9,4 -10,5 27 15 59 32 WNW
10.12.2019 03:00:00 -9,2 -10,3 50 27 67 36 NW
10.12.2019 02:00:00 -9,3 -10,4 53 28 71 39 NW
10.12.2019 01:00:00 -8,9 -10,0 54 29 82 44 NW
10.12.2019 00:00:00 -8,4 -9,3 63 34 93 50 NW
09.12.2019 23:00:00 -8,4 -9,3 81 44 100 54 WNW
09.12.2019 22:00:00 -8,2 -9,1 74 40 88 47 W
09.12.2019 21:00:00 -8,3 -9,2 61 33 74 40 WNW
09.12.2019 20:00:00 -9,4 -10,5 58 31 74 40 WNW
09.12.2019 19:00:00 -11,1 -12,3 61 33 70 38 W
09.12.2019 18:00:00 -11,0 -12,2 29 16 63 34 W
09.12.2019 17:00:00 -10,8 -12,0 48 26 59 32 WNW
09.12.2019 16:00:00 -11,2 -12,4 42 23 58 31 NW
09.12.2019 15:00:00 -11,6 -12,9 43 23 60 33 NW
09.12.2019 14:00:00 -11,5 -12,8 37 20 48 26 NNW
09.12.2019 13:00:00 -10,5 -11,7 35 19 46 25 NNW
09.12.2019 12:00:00 -10,0 -11,1 37 20 46 25 NNW
09.12.2019 11:00:00 -10,8 -12,0 20 11 27 14 N
09.12.2019 10:00:00 -11,2 -12,4 21 12 26 14 N
09.12.2019 09:00:00 -11,4 -12,7 16 9 21 11 N
09.12.2019 08:00:00 -11,2 -12,4 21 11 28 15 NNE
09.12.2019 07:00:00 -11,1 -12,3 21 11 24 13 N
09.12.2019 06:00:00 -11,3 -12,6 16 9 22 12 NNE
09.12.2019 05:00:00 -11,3 -12,6 19 10 29 15 NNE
09.12.2019 04:00:00 -11,2 -12,4 27 15 40 22 NNE
09.12.2019 03:00:00 -11,1 -12,3 29 16 36 19 NNE
09.12.2019 02:00:00 -10,8 -12,0 30 16 35 19 NNE
09.12.2019 01:00:00 -10,3 -11,5 27 14 42 23 ENE
09.12.2019 00:00:00 -10,5 -11,7 29 16 37 20 NE
08.12.2019 23:00:00 -10,1 -11,1 26 14 45 24 ENE
08.12.2019 22:00:00 -10,0 -11,1 39 21 48 26 ENE
08.12.2019 21:00:00 -9,6 -10,7 42 23 52 28 E
08.12.2019 20:00:00 -9,3 -10,4 49 26 59 32 E
08.12.2019 19:00:00 -8,9 -9,8 46 25 55 30 E
08.12.2019 18:00:00 -8,7 -9,6 47 26 61 33 E
08.12.2019 17:00:00 -8,6 -9,5 50 27 67 36 ESE
08.12.2019 16:00:00 -8,4 -9,3 58 31 63 34 ESE
08.12.2019 15:00:00 -8,5 -9,4 42 23 48 26 ESE
08.12.2019 14:00:00 -8,0 -8,9 31 17 36 19 ESE
08.12.2019 13:00:00 -7,9 -8,8 22 12 29 16 E
08.12.2019 12:00:00 -7,6 -8,4 14 8 25 14 ESE
08.12.2019 11:00:00 -8,0 -8,9 17 9 22 12 ESE
08.12.2019 10:00:00 -8,2 -9,1 12 7 14 8 SE
08.12.2019 09:00:00 -7,7 -8,6 6 4 18 10 ENE
08.12.2019 08:00:00 -7,1 -7,9 6 4 20 11 ENE
08.12.2019 07:00:00 -6,8 -7,6 4 2 33 18 NNW
08.12.2019 06:00:00 -6,9 -7,7 31 17 47 25 WNW
08.12.2019 05:00:00 -7,2 -8,0 38 20 46 25 W
08.12.2019 04:00:00 -7,1 -7,9 25 14 46 25 WNW
08.12.2019 03:00:00 -6,7 -7,5 33 18 44 24 W
08.12.2019 02:00:00 -6,0 -6,7 44 24 52 28 W
08.12.2019 01:00:00 -5,4 -5,9 40 22 53 29 W
08.12.2019 00:00:00 -5,6 -6,3 42 23 58 31 W
07.12.2019 23:00:00 -4,8 -5,3 59 32 65 35 W
07.12.2019 22:00:00 -4,5 -4,9 44 24 54 29 WSW
07.12.2019 21:00:00 -4,6 -5,1 48 26 73 40 WSW
07.12.2019 20:00:00 -4,5 -5,0 69 37 78 42 W
07.12.2019 19:00:00 -4,5 -4,9 48 26 77 41 WSW
07.12.2019 18:00:00 -4,6 -5,1 57 31 81 44 WSW
07.12.2019 17:00:00 -4,7 -5,2 64 35 77 41 WSW
07.12.2019 16:00:00 -4,6 -5,1 51 27 79 43 WSW
07.12.2019 15:00:00 -4,6 -5,1 61 33 81 44 WSW
07.12.2019 14:00:00 -4,8 -5,3 56 31 79 42 WSW
07.12.2019 13:00:00 -5,0 -5,5 54 29 67 36 WSW
07.12.2019 12:00:00 -4,9 -5,4 54 29 73 39 WSW
07.12.2019 11:00:00 -5,0 -5,5 43 23 59 32 WSW
07.12.2019 10:00:00 -5,3 -5,8 49 26 59 32 WSW
07.12.2019 09:00:00 -5,3 -5,8 37 20 47 25 SW
07.12.2019 08:00:00 -5,2 -5,7 39 21 64 35 WSW
07.12.2019 07:00:00 -4,6 -5,1 42 23 58 31 WSW
07.12.2019 06:00:00 -4,6 -5,1 46 25 63 34 WSW
07.12.2019 05:00:00 -4,5 -4,9 46 25 57 31 WSW
07.12.2019 04:00:00 -4,5 -4,9 49 26 59 32 WSW
07.12.2019 03:00:00 -4,4 -4,8 48 26 61 33 WSW
07.12.2019 02:00:00 -4,4 -4,8 56 30 69 38 SW
07.12.2019 01:00:00 -4,0 -4,4 52 28 62 33 SW
07.12.2019 00:00:00 -4,4 -4,8 52 28 80 43 SW
06.12.2019 23:00:00 -4,1 -4,5 65 35 78 42 WSW
06.12.2019 22:00:00 -3,7 -4,1 65 35 80 43 WSW
06.12.2019 21:00:00 -3,7 -4,1 61 33 76 41 SW
06.12.2019 20:00:00 -3,9 -4,3 64 35 73 39 SW
06.12.2019 19:00:00 -3,9 -4,3 68 37 84 45 SW
06.12.2019 18:00:00 -4,1 -4,5 56 31 74 40 SW
06.12.2019 17:00:00 -3,9 -4,3 58 32 88 47 SW
06.12.2019 16:00:00 -3,9 -4,3 76 41 91 49 WSW

tt = temperature
td = dewpoint
ff = wind speed
fx = gusts
dd = wind direction

Next stations